createdAt,value
2023-01-06T00:01:21.976Z,42.10
2023-01-06T00:06:28.479Z,42.00
2023-01-06T00:11:32.123Z,42.60
2023-01-06T00:16:35.364Z,42.40
2023-01-06T00:21:42.476Z,42.50
2023-01-06T00:26:45.762Z,42.80
2023-01-06T00:31:48.845Z,42.70
2023-01-06T00:36:53.300Z,42.80
2023-01-06T00:42:05.251Z,43.10
2023-01-06T00:47:11.063Z,43.00
2023-01-06T00:52:15.868Z,43.20
2023-01-06T00:57:18.975Z,43.20
2023-01-06T01:02:22.770Z,43.10
2023-01-06T01:07:27.430Z,42.90
2023-01-06T01:12:30.595Z,43.00
2023-01-06T01:17:34.072Z,42.80
2023-01-06T01:22:38.577Z,42.90
2023-01-06T01:27:41.727Z,43.10
2023-01-06T01:32:44.795Z,43.10
2023-01-06T01:37:49.258Z,43.10
2023-01-06T01:42:52.402Z,43.20
2023-01-06T01:48:01.190Z,42.90
2023-01-06T01:53:10.133Z,43.00
2023-01-06T01:58:17.621Z,42.90
2023-01-06T02:03:22.322Z,43.00
2023-01-06T02:08:38.057Z,42.60
2023-01-06T02:13:44.358Z,42.90
2023-01-06T02:18:59.249Z,42.50
2023-01-06T02:24:41.170Z,42.70
2023-01-06T02:30:01.567Z,42.40
2023-01-06T02:35:25.052Z,42.50
2023-01-06T02:40:41.563Z,42.70
2023-01-06T02:45:51.033Z,42.90
2023-01-06T02:51:01.965Z,42.90
2023-01-06T02:56:05.742Z,42.70
2023-01-06T03:01:13.274Z,42.50
2023-01-06T03:06:20.934Z,42.50
2023-01-06T03:11:25.276Z,42.60
2023-01-06T03:16:28.744Z,42.40
2023-01-06T03:21:37.226Z,42.60
2023-01-06T03:26:41.097Z,43.10
2023-01-06T03:31:52.026Z,42.90
2023-01-06T03:37:03.134Z,43.50
2023-01-06T03:42:38.584Z,43.40
2023-01-06T03:47:53.481Z,43.20
2023-01-06T03:53:05.742Z,42.50
2023-01-06T03:58:12.018Z,42.60
2023-01-06T04:03:17.295Z,42.60
2023-01-06T04:08:22.094Z,42.80
2023-01-06T04:13:25.186Z,43.10
2023-01-06T04:18:28.275Z,43.00
2023-01-06T04:23:33.118Z,43.90
2023-01-06T04:28:36.232Z,44.50
2023-01-06T04:33:39.338Z,44.30
2023-01-06T04:38:43.907Z,43.50
2023-01-06T04:43:46.984Z,43.60
2023-01-06T04:48:50.092Z,43.40
2023-01-06T04:53:54.534Z,43.60
2023-01-06T04:58:58.668Z,43.70
2023-01-06T05:04:02.724Z,43.80
2023-01-06T05:09:07.419Z,43.70
2023-01-06T05:14:10.521Z,43.80
2023-01-06T05:19:13.786Z,43.60
2023-01-06T05:24:18.271Z,43.70
2023-01-06T05:29:21.407Z,44.00
2023-01-06T05:34:24.491Z,43.80
2023-01-06T05:39:28.969Z,43.90
2023-01-06T05:44:32.665Z,44.20
2023-01-06T05:49:35.733Z,44.00
2023-01-06T05:54:40.600Z,44.20
2023-01-06T05:59:43.874Z,44.50
2023-01-06T06:04:47.842Z,44.30
2023-01-06T06:09:52.299Z,44.30
2023-01-06T06:14:55.401Z,44.60
2023-01-06T06:19:58.516Z,44.30
2023-01-06T06:25:02.987Z,44.30
2023-01-06T06:30:07.459Z,44.70
2023-01-06T06:35:10.840Z,44.50
2023-01-06T06:40:15.593Z,44.40
2023-01-06T06:45:18.666Z,44.50
2023-01-06T06:50:22.056Z,44.40
2023-01-06T06:55:26.513Z,44.40
2023-01-06T07:00:29.744Z,44.70
2023-01-06T07:05:32.891Z,44.40
2023-01-06T07:10:37.492Z,44.40
2023-01-06T07:15:40.612Z,44.50
2023-01-06T07:20:48.585Z,44.20
2023-01-06T07:25:54.824Z,44.50
2023-01-06T07:30:58.241Z,44.50
2023-01-06T07:36:01.470Z,43.90
2023-01-06T07:41:06.125Z,43.80
2023-01-06T07:46:09.483Z,44.00
2023-01-06T07:51:12.639Z,43.80
2023-01-06T07:56:17.225Z,43.70
2023-01-06T08:01:20.399Z,44.00
2023-01-06T08:06:23.539Z,43.90
2023-01-06T08:11:27.995Z,44.00
2023-01-06T08:16:31.099Z,44.20
2023-01-06T08:21:34.330Z,44.10
2023-01-06T08:26:38.804Z,44.40
2023-01-06T08:31:42.074Z,44.50
2023-01-06T08:36:45.741Z,44.50
2023-01-06T08:41:51.944Z,44.80
2023-01-06T08:46:55.030Z,45.20
2023-01-06T08:51:58.168Z,45.30
2023-01-06T08:57:02.715Z,45.30
2023-01-06T09:02:06.742Z,45.80
2023-01-06T09:07:10.041Z,45.40
2023-01-06T09:12:14.486Z,45.20
2023-01-06T09:17:17.627Z,45.30
2023-01-06T09:22:20.794Z,45.20
2023-01-06T09:27:25.501Z,45.30
2023-01-06T09:32:28.636Z,45.40
2023-01-06T09:37:31.719Z,45.40
2023-01-06T09:42:46.590Z,45.40
2023-01-06T09:47:56.594Z,45.50
2023-01-06T09:53:04.748Z,45.40
2023-01-06T09:58:14.257Z,45.10
2023-01-06T10:03:20.067Z,45.10
2023-01-06T10:08:30.736Z,44.80
2023-01-06T10:13:48.465Z,44.70
2023-01-06T10:19:00.262Z,44.40
2023-01-06T10:24:33.414Z,44.20
2023-01-06T10:29:39.266Z,44.10
2023-01-06T10:34:42.882Z,44.40
2023-01-06T10:39:49.557Z,44.60
2023-01-06T10:44:54.280Z,44.30
2023-01-06T10:49:58.014Z,43.90
2023-01-06T10:55:06.322Z,44.10
2023-01-06T11:00:22.393Z,44.00
2023-01-06T11:05:28.365Z,43.70
2023-01-06T11:10:36.044Z,43.90
2023-01-06T11:15:43.106Z,43.40
2023-01-06T11:20:46.540Z,43.40
2023-01-06T11:26:03.176Z,43.90
2023-01-06T11:31:10.019Z,43.60
2023-01-06T11:36:15.200Z,43.60
2023-01-06T11:41:26.941Z,44.30
2023-01-06T11:46:31.472Z,43.60
2023-01-06T11:51:48.605Z,43.60
2023-01-06T11:56:59.849Z,43.40
2023-01-06T12:02:04.523Z,44.00
2023-01-06T12:07:20.413Z,44.10
2023-01-06T12:12:28.137Z,43.40
2023-01-06T12:17:43.455Z,43.50
2023-01-06T12:22:50.077Z,43.40
2023-01-06T12:27:57.615Z,43.70
2023-01-06T12:33:11.272Z,43.80
2023-01-06T12:38:30.153Z,43.60
2023-01-06T12:43:38.543Z,43.60
2023-01-06T12:48:48.674Z,43.60
2023-01-06T12:53:57.049Z,43.60
2023-01-06T12:59:13.363Z,43.60
2023-01-06T13:04:45.878Z,43.00
2023-01-06T13:09:59.889Z,43.10
2023-01-06T13:15:10.642Z,43.30
2023-01-06T13:20:22.029Z,43.40
2023-01-06T13:25:50.395Z,43.30
2023-01-06T13:31:20.614Z,43.20
2023-01-06T13:36:44.606Z,43.80
2023-01-06T13:41:55.760Z,43.40
2023-01-06T13:47:04.928Z,43.40
2023-01-06T13:52:17.139Z,43.40
2023-01-06T13:57:32.573Z,43.10
2023-01-06T14:03:02.665Z,43.10
2023-01-06T14:08:18.238Z,43.10
2023-01-06T14:13:24.278Z,43.10
2023-01-06T14:18:33.178Z,43.00
2023-01-06T14:23:38.260Z,43.00
2023-01-06T14:28:42.505Z,43.00
2023-01-06T14:33:46.173Z,43.20
2023-01-06T14:38:53.945Z,43.70
2023-01-06T14:44:01.327Z,43.50
2023-01-06T14:49:07.359Z,43.80
2023-01-06T14:54:22.840Z,43.30
2023-01-06T14:59:26.269Z,43.30
2023-01-06T15:04:31.963Z,43.40
2023-01-06T15:09:36.408Z,43.30
2023-01-06T15:14:39.544Z,43.30
2023-01-06T15:19:44.972Z,43.20
2023-01-06T15:24:50.507Z,43.10
2023-01-06T15:29:55.276Z,43.10
2023-01-06T15:34:59.527Z,43.10
2023-01-06T15:40:06.188Z,43.20
2023-01-06T15:45:24.732Z,43.20
2023-01-06T15:50:31.766Z,43.20
2023-01-06T15:55:40.153Z,43.20
2023-01-06T16:00:48.113Z,43.30
2023-01-06T16:06:00.184Z,43.30
2023-01-06T16:11:48.454Z,43.40
2023-01-06T16:16:51.843Z,43.40
2023-01-06T16:21:56.838Z,43.40
2023-01-06T16:27:03.579Z,43.40
2023-01-06T16:32:27.882Z,43.40
2023-01-06T16:37:34.498Z,43.40
2023-01-06T16:42:43.557Z,43.40
2023-01-06T16:47:47.133Z,43.40
2023-01-06T16:52:55.104Z,43.40
2023-01-06T16:58:01.041Z,43.50
2023-01-06T17:03:14.604Z,43.40
2023-01-06T17:08:22.732Z,43.40
2023-01-06T17:13:36.113Z,43.40
2023-01-06T17:18:49.299Z,43.40
2023-01-06T17:23:55.481Z,43.40
2023-01-06T17:29:02.262Z,43.40
2023-01-06T17:34:13.406Z,43.40
2023-01-06T17:39:22.979Z,43.40
2023-01-06T17:44:37.074Z,43.40
2023-01-06T17:49:40.342Z,43.40
2023-01-06T17:55:07.943Z,43.40
2023-01-06T18:00:23.020Z,43.40
2023-01-06T18:05:57.443Z,43.40
2023-01-06T18:11:17.217Z,43.40
2023-01-06T18:16:29.924Z,43.40
2023-01-06T18:21:37.344Z,43.40
2023-01-06T18:26:46.534Z,43.40
2023-01-06T18:31:52.272Z,43.40
2023-01-06T18:36:57.750Z,43.40
2023-01-06T18:42:29.521Z,43.40
2023-01-06T18:47:36.959Z,47.20
2023-01-06T18:52:43.058Z,44.40
2023-01-06T18:57:46.825Z,43.90
2023-01-06T19:02:53.192Z,43.40
2023-01-06T19:07:58.155Z,43.40
2023-01-06T19:13:02.158Z,43.40
2023-01-06T19:18:13.594Z,43.30
2023-01-06T19:23:20.216Z,43.30
2023-01-06T19:28:26.301Z,43.20
2023-01-06T19:33:40.876Z,43.10
2023-01-06T19:38:45.133Z,43.10
2023-01-06T19:43:49.261Z,43.30
2023-01-06T19:48:55.672Z,43.40
2023-01-06T19:54:03.451Z,43.50
2023-01-06T19:59:15.320Z,43.60
2023-01-06T20:04:23.132Z,43.60
2023-01-06T20:09:26.354Z,43.70
2023-01-06T20:14:29.621Z,43.70
2023-01-06T20:19:34.195Z,43.70
2023-01-06T20:24:37.323Z,43.70
2023-01-06T20:29:40.447Z,43.60
2023-01-06T20:34:45.009Z,43.70
2023-01-06T20:39:48.139Z,43.70
2023-01-06T20:44:51.247Z,43.60
2023-01-06T20:49:56.769Z,43.50
2023-01-06T20:54:59.922Z,43.70
2023-01-06T21:00:03.255Z,43.80
2023-01-06T21:05:08.843Z,43.90
2023-01-06T21:10:12.105Z,44.00
2023-01-06T21:15:15.629Z,43.80
2023-01-06T21:20:20.576Z,43.90
2023-01-06T21:25:24.874Z,44.10
2023-01-06T21:30:29.080Z,44.10
2023-01-06T21:35:33.828Z,44.00
2023-01-06T21:40:37.092Z,44.00
2023-01-06T21:45:41.621Z,43.90
2023-01-06T21:50:47.546Z,43.90
2023-01-06T21:55:51.687Z,44.10
2023-01-06T22:00:56.198Z,44.00
2023-01-06T22:06:02.186Z,44.00
2023-01-06T22:11:05.545Z,44.30
2023-01-06T22:16:09.983Z,44.10
2023-01-06T22:21:15.079Z,44.20
2023-01-06T22:26:18.206Z,44.40
2023-01-06T22:31:21.402Z,44.90
2023-01-06T22:36:25.956Z,44.20
2023-01-06T22:41:29.079Z,44.50
2023-01-06T22:46:32.392Z,44.30
2023-01-06T22:51:37.079Z,44.40
2023-01-06T22:56:41.864Z,44.60
2023-01-06T23:01:45.578Z,44.50
2023-01-06T23:06:50.237Z,44.50
2023-01-06T23:11:53.757Z,44.60
2023-01-06T23:16:56.977Z,44.40
2023-01-06T23:22:01.464Z,44.40
2023-01-06T23:27:04.606Z,44.50
2023-01-06T23:32:07.689Z,44.50
2023-01-06T23:37:12.146Z,44.40
2023-01-06T23:42:15.202Z,44.40
2023-01-06T23:47:18.453Z,44.50
2023-01-06T23:52:23.121Z,44.40
2023-01-06T23:57:26.178Z,44.40
